Terminal Aerodrome Forecast
Issued by NWS St Louis, MO

Home | Current Version | Previous Version | Text Only | Print | Product List | Glossary On
Versions: 1 2 3 4 5 6 7 8 9 10 11 12 13 14 15 16 17 18 19 20 21 22 23 24 25 26 27 28 29 30 31 32 33 34 35
000
FTUS43 KLSX 181400 AAA
TAFSTL
TAF AMD
KSTL 181406Z 1814/1918 00000KT 3SM BR BKN006
     FM181500 VRB03KT P6SM BKN010
     FM181600 VRB04KT P6SM SCT020
     FM190000 18005KT P6SM SCT030=

USA.gov is the U.S. government's official web portal to all federal, state and local government web resources and services.